sensor_id;sensor_type;location;lat;lon;timestamp;P1;durP1;ratioP1;P2;durP2;ratioP2
74845;SDS011;63393;48.758;9.254;2022-10-31T01:49:00;19.90;;;8.60;;
74845;SDS011;63393;48.758;9.254;2022-10-31T01:51:29;20.52;;;8.52;;
74845;SDS011;63393;48.758;9.254;2022-10-31T01:54:00;19.15;;;7.93;;
74845;SDS011;63393;48.758;9.254;2022-10-31T01:56:28;17.50;;;7.55;;
74845;SDS011;63393;48.758;9.254;2022-10-31T01:58:55;22.92;;;8.95;;
74845;SDS011;63393;48.758;9.254;2022-10-31T02:01:23;21.88;;;9.23;;
74845;SDS011;63393;48.758;9.254;2022-10-31T02:03:51;20.38;;;9.18;;
74845;SDS011;63393;48.758;9.254;2022-10-31T02:06:25;21.95;;;9.23;;
74845;SDS011;63393;48.758;9.254;2022-10-31T02:08:54;21.50;;;10.10;;
74845;SDS011;63393;48.758;9.254;2022-10-31T02:11:22;22.67;;;9.13;;
74845;SDS011;63393;48.758;9.254;2022-10-31T02:13:52;25.42;;;9.82;;
74845;SDS011;63393;48.758;9.254;2022-10-31T02:16:21;18.98;;;8.48;;
74845;SDS011;63393;48.758;9.254;2022-10-31T02:18:49;23.67;;;8.77;;
74845;SDS011;63393;48.758;9.254;2022-10-31T02:21:19;21.65;;;8.57;;
74845;SDS011;63393;48.758;9.254;2022-10-31T02:23:57;22.40;;;8.50;;
74845;SDS011;63393;48.758;9.254;2022-10-31T02:29:27;20.08;;;8.57;;
74845;SDS011;63393;48.758;9.254;2022-10-31T02:32:02;20.58;;;9.25;;
74845;SDS011;63393;48.758;9.254;2022-10-31T02:34:33;19.75;;;8.40;;
74845;SDS011;63393;48.758;9.254;2022-10-31T02:37:05;21.50;;;9.02;;
74845;SDS011;63393;48.758;9.254;2022-10-31T02:39:36;20.17;;;8.90;;
74845;SDS011;63393;48.758;9.254;2022-10-31T02:42:07;20.85;;;9.02;;
74845;SDS011;63393;48.758;9.254;2022-10-31T02:44:38;22.30;;;9.40;;
74845;SDS011;63393;48.758;9.254;2022-10-31T02:47:08;20.38;;;8.80;;
74845;SDS011;63393;48.758;9.254;2022-10-31T02:49:38;20.77;;;9.35;;
74845;SDS011;63393;48.758;9.254;2022-10-31T02:52:17;22.27;;;9.10;;
74845;SDS011;63393;48.758;9.254;2022-10-31T02:54:45;22.35;;;8.30;;
74845;SDS011;63393;48.758;9.254;2022-10-31T02:57:13;24.15;;;8.65;;
74845;SDS011;63393;48.758;9.254;2022-10-31T02:59:43;20.60;;;9.30;;
74845;SDS011;63393;48.758;9.254;2022-10-31T03:02:17;20.30;;;9.35;;
74845;SDS011;63393;48.758;9.254;2022-10-31T03:04:55;24.10;;;9.55;;
74845;SDS011;63393;48.758;9.254;2022-10-31T03:07:25;20.45;;;8.95;;
74845;SDS011;63393;48.758;9.254;2022-10-31T03:10:01;22.90;;;9.50;;
74845;SDS011;63393;48.758;9.254;2022-10-31T03:12:33;23.88;;;8.98;;
74845;SDS011;63393;48.758;9.254;2022-10-31T03:15:05;20.33;;;9.25;;
74845;SDS011;63393;48.758;9.254;2022-10-31T03:17:38;21.48;;;8.60;;
74845;SDS011;63393;48.758;9.254;2022-10-31T03:20:09;22.65;;;9.00;;
74845;SDS011;63393;48.758;9.254;2022-10-31T03:22:37;22.30;;;8.63;;
74845;SDS011;63393;48.758;9.254;2022-10-31T03:25:07;22.80;;;9.65;;
74845;SDS011;63393;48.758;9.254;2022-10-31T03:27:35;18.58;;;8.43;;
74845;SDS011;63393;48.758;9.254;2022-10-31T03:30:04;19.23;;;9.27;;
74845;SDS011;63393;48.758;9.254;2022-10-31T03:32:43;22.40;;;9.00;;
74845;SDS011;63393;48.758;9.254;2022-10-31T03:35:12;21.07;;;8.93;;
74845;SDS011;63393;48.758;9.254;2022-10-31T03:37:39;24.95;;;9.80;;
74845;SDS011;63393;48.758;9.254;2022-10-31T03:40:12;26.95;;;9.55;;
74845;SDS011;63393;48.758;9.254;2022-10-31T03:42:41;21.83;;;9.00;;
74845;SDS011;63393;48.758;9.254;2022-10-31T03:45:11;20.98;;;9.23;;
74845;SDS011;63393;48.758;9.254;2022-10-31T03:47:40;23.25;;;10.20;;
74845;SDS011;63393;48.758;9.254;2022-10-31T03:50:10;21.27;;;9.40;;
74845;SDS011;63393;48.758;9.254;2022-10-31T03:52:41;21.80;;;9.13;;
74845;SDS011;63393;48.758;9.254;2022-10-31T03:55:10;23.65;;;9.57;;
74845;SDS011;63393;48.758;9.254;2022-10-31T03:57:41;22.35;;;9.77;;
74845;SDS011;63393;48.758;9.254;2022-10-31T04:00:11;20.58;;;9.25;;
74845;SDS011;63393;48.758;9.254;2022-10-31T04:02:47;20.02;;;9.75;;
74845;SDS011;63393;48.758;9.254;2022-10-31T04:05:18;19.98;;;9.07;;
74845;SDS011;63393;48.758;9.254;2022-10-31T04:07:47;21.92;;;8.63;;
74845;SDS011;63393;48.758;9.254;2022-10-31T04:10:17;25.83;;;11.13;;
74845;SDS011;63393;48.758;9.254;2022-10-31T04:12:46;20.98;;;9.02;;
74845;SDS011;63393;48.758;9.254;2022-10-31T04:15:19;24.52;;;9.02;;
74845;SDS011;63393;48.758;9.254;2022-10-31T04:17:47;24.42;;;9.20;;
74845;SDS011;63393;48.758;9.254;2022-10-31T04:20:28;19.05;;;8.23;;
74845;SDS011;63393;48.758;9.254;2022-10-31T04:22:56;20.48;;;8.90;;
74845;SDS011;63393;48.758;9.254;2022-10-31T04:25:24;22.77;;;9.85;;
74845;SDS011;63393;48.758;9.254;2022-10-31T04:27:54;26.17;;;9.65;;
74845;SDS011;63393;48.758;9.254;2022-10-31T04:30:22;20.80;;;9.77;;
74845;SDS011;63393;48.758;9.254;2022-10-31T04:32:50;26.23;;;9.73;;
74845;SDS011;63393;48.758;9.254;2022-10-31T04:35:19;21.48;;;9.60;;
74845;SDS011;63393;48.758;9.254;2022-10-31T04:37:46;25.08;;;9.90;;
74845;SDS011;63393;48.758;9.254;2022-10-31T04:40:13;24.38;;;10.30;;
74845;SDS011;63393;48.758;9.254;2022-10-31T04:43:15;20.83;;;9.10;;
74845;SDS011;63393;48.758;9.254;2022-10-31T04:45:44;22.65;;;9.30;;
74845;SDS011;63393;48.758;9.254;2022-10-31T04:48:12;19.50;;;8.57;;
74845;SDS011;63393;48.758;9.254;2022-10-31T04:50:43;23.88;;;9.18;;
74845;SDS011;63393;48.758;9.254;2022-10-31T04:53:12;25.20;;;9.27;;
74845;SDS011;63393;48.758;9.254;2022-10-31T04:55:59;24.85;;;9.10;;
74845;SDS011;63393;48.758;9.254;2022-10-31T04:58:35;18.90;;;8.93;;
74845;SDS011;63393;48.758;9.254;2022-10-31T05:01:06;21.30;;;8.77;;
74845;SDS011;63393;48.758;9.254;2022-10-31T05:03:34;21.17;;;10.00;;
74845;SDS011;63393;48.758;9.254;2022-10-31T05:06:03;19.77;;;9.35;;
74845;SDS011;63393;48.758;9.254;2022-10-31T05:08:30;26.55;;;9.90;;
74845;SDS011;63393;48.758;9.254;2022-10-31T05:11:01;23.50;;;9.33;;
74845;SDS011;63393;48.758;9.254;2022-10-31T05:13:29;24.52;;;9.65;;
74845;SDS011;63393;48.758;9.254;2022-10-31T05:16:02;20.52;;;9.27;;
74845;SDS011;63393;48.758;9.254;2022-10-31T05:18:48;27.73;;;10.60;;
74845;SDS011;63393;48.758;9.254;2022-10-31T05:21:29;22.40;;;9.18;;
74845;SDS011;63393;48.758;9.254;2022-10-31T05:24:00;22.02;;;9.32;;
74845;SDS011;63393;48.758;9.254;2022-10-31T05:26:28;20.88;;;9.73;;
74845;SDS011;63393;48.758;9.254;2022-10-31T05:28:56;25.73;;;11.65;;
74845;SDS011;63393;48.758;9.254;2022-10-31T05:31:23;22.85;;;10.77;;
74845;SDS011;63393;48.758;9.254;2022-10-31T05:33:52;23.00;;;9.02;;
74845;SDS011;63393;48.758;9.254;2022-10-31T05:36:50;21.75;;;9.35;;
74845;SDS011;63393;48.758;9.254;2022-10-31T05:39:21;23.65;;;9.20;;
74845;SDS011;63393;48.758;9.254;2022-10-31T05:41:53;24.88;;;9.43;;
74845;SDS011;63393;48.758;9.254;2022-10-31T05:44:24;22.70;;;9.88;;
74845;SDS011;63393;48.758;9.254;2022-10-31T05:47:12;22.35;;;10.32;;
74845;SDS011;63393;48.758;9.254;2022-10-31T05:49:55;25.23;;;9.13;;
74845;SDS011;63393;48.758;9.254;2022-10-31T05:52:43;18.88;;;9.40;;
74845;SDS011;63393;48.758;9.254;2022-10-31T05:55:33;22.00;;;10.35;;
74845;SDS011;63393;48.758;9.254;2022-10-31T05:58:13;19.92;;;9.20;;
74845;SDS011;63393;48.758;9.254;2022-10-31T06:00:49;24.50;;;9.43;;
74845;SDS011;63393;48.758;9.254;2022-10-31T06:03:17;21.77;;;9.45;;
74845;SDS011;63393;48.758;9.254;2022-10-31T06:05:46;22.65;;;10.07;;
74845;SDS011;63393;48.758;9.254;2022-10-31T06:08:16;20.20;;;9.90;;
74845;SDS011;63393;48.758;9.254;2022-10-31T06:10:44;22.73;;;9.25;;
74845;SDS011;63393;48.758;9.254;2022-10-31T06:13:14;23.83;;;9.23;;
74845;SDS011;63393;48.758;9.254;2022-10-31T06:15:49;19.17;;;8.30;;
74845;SDS011;63393;48.758;9.254;2022-10-31T06:18:20;23.67;;;9.50;;
74845;SDS011;63393;48.758;9.254;2022-10-31T06:20:50;22.27;;;9.27;;
74845;SDS011;63393;48.758;9.254;2022-10-31T06:23:19;20.48;;;9.65;;
74845;SDS011;63393;48.758;9.254;2022-10-31T06:25:50;24.45;;;10.30;;
74845;SDS011;63393;48.758;9.254;2022-10-31T06:28:18;22.45;;;9.60;;
74845;SDS011;63393;48.758;9.254;2022-10-31T06:30:51;21.95;;;9.93;;
74845;SDS011;63393;48.758;9.254;2022-10-31T06:33:19;22.67;;;9.32;;
74845;SDS011;63393;48.758;9.254;2022-10-31T06:35:54;19.35;;;8.30;;
74845;SDS011;63393;48.758;9.254;2022-10-31T06:38:24;23.08;;;8.48;;
74845;SDS011;63393;48.758;9.254;2022-10-31T06:40:52;20.67;;;8.25;;
74845;SDS011;63393;48.758;9.254;2022-10-31T06:43:21;22.98;;;8.85;;
74845;SDS011;63393;48.758;9.254;2022-10-31T06:46:01;23.08;;;9.20;;
74845;SDS011;63393;48.758;9.254;2022-10-31T06:48:33;19.20;;;8.13;;
74845;SDS011;63393;48.758;9.254;2022-10-31T06:51:17;22.20;;;9.35;;
74845;SDS011;63393;48.758;9.254;2022-10-31T06:53:46;25.70;;;9.65;;
74845;SDS011;63393;48.758;9.254;2022-10-31T06:56:15;19.17;;;9.63;;
74845;SDS011;63393;48.758;9.254;2022-10-31T06:58:53;22.00;;;8.88;;
74845;SDS011;63393;48.758;9.254;2022-10-31T07:01:37;19.02;;;8.60;;
74845;SDS011;63393;48.758;9.254;2022-10-31T07:04:05;20.70;;;9.10;;
74845;SDS011;63393;48.758;9.254;2022-10-31T07:06:34;18.05;;;8.52;;
74845;SDS011;63393;48.758;9.254;2022-10-31T07:09:03;22.75;;;9.65;;
74845;SDS011;63393;48.758;9.254;2022-10-31T07:11:31;21.33;;;8.98;;
74845;SDS011;63393;48.758;9.254;2022-10-31T07:13:59;18.98;;;8.35;;
74845;SDS011;63393;48.758;9.254;2022-10-31T07:16:26;19.27;;;8.05;;
74845;SDS011;63393;48.758;9.254;2022-10-31T07:18:54;19.40;;;8.20;;
74845;SDS011;63393;48.758;9.254;2022-10-31T07:21:21;15.70;;;7.70;;
74845;SDS011;63393;48.758;9.254;2022-10-31T07:23:49;18.35;;;8.20;;
74845;SDS011;63393;48.758;9.254;2022-10-31T07:26:36;27.02;;;8.23;;
74845;SDS011;63393;48.758;9.254;2022-10-31T07:29:04;18.23;;;8.25;;
74845;SDS011;63393;48.758;9.254;2022-10-31T07:31:32;21.10;;;9.60;;
74845;SDS011;63393;48.758;9.254;2022-10-31T07:34:07;17.70;;;8.57;;
74845;SDS011;63393;48.758;9.254;2022-10-31T07:36:34;23.27;;;9.05;;
74845;SDS011;63393;48.758;9.254;2022-10-31T07:39:03;22.75;;;9.23;;
74845;SDS011;63393;48.758;9.254;2022-10-31T07:41:33;25.60;;;9.20;;
74845;SDS011;63393;48.758;9.254;2022-10-31T07:44:03;19.55;;;8.35;;
74845;SDS011;63393;48.758;9.254;2022-10-31T07:47:02;20.17;;;8.47;;
74845;SDS011;63393;48.758;9.254;2022-10-31T07:49:48;21.90;;;9.50;;
74845;SDS011;63393;48.758;9.254;2022-10-31T07:52:34;26.15;;;10.38;;
74845;SDS011;63393;48.758;9.254;2022-10-31T07:55:21;21.70;;;9.30;;
74845;SDS011;63393;48.758;9.254;2022-10-31T07:57:54;24.38;;;9.75;;
74845;SDS011;63393;48.758;9.254;2022-10-31T08:00:23;23.52;;;10.05;;
74845;SDS011;63393;48.758;9.254;2022-10-31T08:02:57;23.20;;;8.57;;
74845;SDS011;63393;48.758;9.254;2022-10-31T08:05:44;23.45;;;8.65;;
74845;SDS011;63393;48.758;9.254;2022-10-31T08:08:35;23.30;;;9.52;;
74845;SDS011;63393;48.758;9.254;2022-10-31T08:11:03;21.33;;;8.60;;
74845;SDS011;63393;48.758;9.254;2022-10-31T08:13:31;22.95;;;8.57;;
74845;SDS011;63393;48.758;9.254;2022-10-31T08:16:00;23.58;;;8.82;;
74845;SDS011;63393;48.758;9.254;2022-10-31T08:18:31;25.20;;;10.13;;
74845;SDS011;63393;48.758;9.254;2022-10-31T08:20:58;18.20;;;8.02;;
74845;SDS011;63393;48.758;9.254;2022-10-31T08:23:26;19.90;;;8.20;;
74845;SDS011;63393;48.758;9.254;2022-10-31T08:25:54;25.63;;;8.65;;
74845;SDS011;63393;48.758;9.254;2022-10-31T08:28:22;22.13;;;8.25;;
74845;SDS011;63393;48.758;9.254;2022-10-31T08:30:52;16.17;;;8.02;;
74845;SDS011;63393;48.758;9.254;2022-10-31T08:33:39;20.08;;;8.20;;
74845;SDS011;63393;48.758;9.254;2022-10-31T08:36:27;22.08;;;8.10;;
74845;SDS011;63393;48.758;9.254;2022-10-31T08:39:15;21.05;;;8.07;;
74845;SDS011;63393;48.758;9.254;2022-10-31T08:41:43;20.98;;;7.75;;
74845;SDS011;63393;48.758;9.254;2022-10-31T08:44:12;16.38;;;7.30;;
74845;SDS011;63393;48.758;9.254;2022-10-31T08:46:43;22.45;;;7.80;;
74845;SDS011;63393;48.758;9.254;2022-10-31T08:49:12;21.52;;;7.82;;
74845;SDS011;63393;48.758;9.254;2022-10-31T08:51:41;23.88;;;7.88;;
74845;SDS011;63393;48.758;9.254;2022-10-31T08:54:09;20.83;;;8.23;;
74845;SDS011;63393;48.758;9.254;2022-10-31T08:56:55;18.63;;;7.75;;
74845;SDS011;63393;48.758;9.254;2022-10-31T08:59:38;19.80;;;8.30;;
74845;SDS011;63393;48.758;9.254;2022-10-31T09:02:29;22.33;;;7.60;;
74845;SDS011;63393;48.758;9.254;2022-10-31T09:05:00;19.95;;;8.65;;
74845;SDS011;63393;48.758;9.254;2022-10-31T09:07:28;19.90;;;8.43;;
74845;SDS011;63393;48.758;9.254;2022-10-31T09:09:56;19.20;;;7.88;;
74845;SDS011;63393;48.758;9.254;2022-10-31T09:12:25;21.77;;;8.20;;
74845;SDS011;63393;48.758;9.254;2022-10-31T09:15:11;21.23;;;7.93;;
74845;SDS011;63393;48.758;9.254;2022-10-31T09:17:48;17.17;;;7.55;;
74845;SDS011;63393;48.758;9.254;2022-10-31T09:20:29;21.60;;;8.05;;
74845;SDS011;63393;48.758;9.254;2022-10-31T09:22:57;25.27;;;7.72;;
74845;SDS011;63393;48.758;9.254;2022-10-31T09:25:25;21.08;;;7.30;;
74845;SDS011;63393;48.758;9.254;2022-10-31T09:28:13;22.50;;;7.07;;
74845;SDS011;63393;48.758;9.254;2022-10-31T09:30:46;23.27;;;7.35;;
74845;SDS011;63393;48.758;9.254;2022-10-31T09:33:21;23.42;;;7.43;;
74845;SDS011;63393;48.758;9.254;2022-10-31T09:36:13;21.07;;;7.53;;
74845;SDS011;63393;48.758;9.254;2022-10-31T09:38:41;21.98;;;7.60;;
74845;SDS011;63393;48.758;9.254;2022-10-31T09:41:12;17.38;;;7.82;;
74845;SDS011;63393;48.758;9.254;2022-10-31T09:43:47;24.88;;;8.63;;
74845;SDS011;63393;48.758;9.254;2022-10-31T09:46:19;23.42;;;7.75;;
74845;SDS011;63393;48.758;9.254;2022-10-31T09:48:54;16.58;;;7.47;;
74845;SDS011;63393;48.758;9.254;2022-10-31T09:51:41;20.65;;;7.13;;
74845;SDS011;63393;48.758;9.254;2022-10-31T09:54:20;19.45;;;7.45;;
74845;SDS011;63393;48.758;9.254;2022-10-31T09:56:49;18.30;;;7.93;;
74845;SDS011;63393;48.758;9.254;2022-10-31T09:59:19;20.75;;;7.35;;
74845;SDS011;63393;48.758;9.254;2022-10-31T10:01:53;18.27;;;7.25;;
74845;SDS011;63393;48.758;9.254;2022-10-31T10:04:28;21.08;;;7.25;;
74845;SDS011;63393;48.758;9.254;2022-10-31T10:07:27;20.65;;;7.93;;
74845;SDS011;63393;48.758;9.254;2022-10-31T10:10:20;18.27;;;8.00;;
74845;SDS011;63393;48.758;9.254;2022-10-31T10:13:22;23.70;;;7.60;;
74845;SDS011;63393;48.758;9.254;2022-10-31T10:15:58;19.45;;;7.65;;
74845;SDS011;63393;48.758;9.254;2022-10-31T10:18:30;23.90;;;8.30;;
74845;SDS011;63393;48.758;9.254;2022-10-31T10:23:34;20.13;;;7.70;;
74845;SDS011;63393;48.758;9.254;2022-10-31T10:26:05;20.00;;;8.05;;
74845;SDS011;63393;48.758;9.254;2022-10-31T10:28:37;18.08;;;7.50;;
74845;SDS011;63393;48.758;9.254;2022-10-31T10:31:07;20.13;;;7.32;;
74845;SDS011;63393;48.758;9.254;2022-10-31T10:33:35;20.10;;;7.45;;
74845;SDS011;63393;48.758;9.254;2022-10-31T10:36:05;28.20;;;7.57;;
74845;SDS011;63393;48.758;9.254;2022-10-31T10:38:36;19.42;;;7.18;;
74845;SDS011;63393;48.758;9.254;2022-10-31T10:41:05;15.85;;;6.70;;
74845;SDS011;63393;48.758;9.254;2022-10-31T10:43:34;20.83;;;7.28;;
74845;SDS011;63393;48.758;9.254;2022-10-31T10:46:05;17.35;;;8.05;;
74845;SDS011;63393;48.758;9.254;2022-10-31T10:48:55;21.67;;;7.80;;
74845;SDS011;63393;48.758;9.254;2022-10-31T10:51:27;19.08;;;7.72;;
74845;SDS011;63393;48.758;9.254;2022-10-31T10:54:00;18.65;;;6.93;;
74845;SDS011;63393;48.758;9.254;2022-10-31T10:56:36;22.08;;;8.88;;
74845;SDS011;63393;48.758;9.254;2022-10-31T10:59:06;18.08;;;7.18;;
74845;SDS011;63393;48.758;9.254;2022-10-31T11:01:35;19.05;;;7.72;;
74845;SDS011;63393;48.758;9.254;2022-10-31T11:04:24;19.80;;;7.63;;
74845;SDS011;63393;48.758;9.254;2022-10-31T11:06:58;18.55;;;7.95;;
74845;SDS011;63393;48.758;9.254;2022-10-31T11:09:26;22.95;;;7.45;;
74845;SDS011;63393;48.758;9.254;2022-10-31T11:11:54;20.02;;;7.00;;
74845;SDS011;63393;48.758;9.254;2022-10-31T11:14:22;18.40;;;7.47;;
74845;SDS011;63393;48.758;9.254;2022-10-31T11:16:52;16.10;;;7.13;;
74845;SDS011;63393;48.758;9.254;2022-10-31T11:19:21;20.58;;;7.60;;
74845;SDS011;63393;48.758;9.254;2022-10-31T11:21:51;18.73;;;7.20;;
74845;SDS011;63393;48.758;9.254;2022-10-31T11:24:20;21.20;;;7.78;;
74845;SDS011;63393;48.758;9.254;2022-10-31T11:26:49;19.05;;;7.28;;
74845;SDS011;63393;48.758;9.254;2022-10-31T11:29:20;20.95;;;7.70;;
74845;SDS011;63393;48.758;9.254;2022-10-31T11:31:51;20.80;;;7.07;;
74845;SDS011;63393;48.758;9.254;2022-10-31T11:34:22;15.52;;;6.35;;
74845;SDS011;63393;48.758;9.254;2022-10-31T11:36:53;16.88;;;6.80;;
74845;SDS011;63393;48.758;9.254;2022-10-31T11:39:21;21.10;;;7.30;;
74845;SDS011;63393;48.758;9.254;2022-10-31T11:41:51;19.33;;;7.13;;
74845;SDS011;63393;48.758;9.254;2022-10-31T11:44:20;18.33;;;6.70;;
74845;SDS011;63393;48.758;9.254;2022-10-31T11:46:48;16.85;;;7.40;;
74845;SDS011;63393;48.758;9.254;2022-10-31T11:49:19;16.65;;;6.82;;
74845;SDS011;63393;48.758;9.254;2022-10-31T11:51:49;21.02;;;7.60;;
74845;SDS011;63393;48.758;9.254;2022-10-31T11:54:20;19.65;;;6.93;;
74845;SDS011;63393;48.758;9.254;2022-10-31T11:56:49;22.33;;;8.02;;
74845;SDS011;63393;48.758;9.254;2022-10-31T11:59:20;18.23;;;7.60;;
74845;SDS011;63393;48.758;9.254;2022-10-31T12:01:49;20.65;;;7.40;;
74845;SDS011;63393;48.758;9.254;2022-10-31T15:38:22;25.05;;;10.48;;
74845;SDS011;63393;48.758;9.254;2022-10-31T17:21:38;35.22;;;14.93;;
74845;SDS011;63393;48.758;9.254;2022-10-31T17:24:06;32.80;;;15.52;;
74845;SDS011;63393;48.758;9.254;2022-10-31T17:26:35;34.83;;;17.55;;
74845;SDS011;63393;48.758;9.254;2022-10-31T17:29:02;39.25;;;18.38;;
74845;SDS011;63393;48.758;9.254;2022-10-31T17:31:31;40.35;;;19.63;;
74845;SDS011;63393;48.758;9.254;2022-10-31T17:34:01;31.90;;;16.25;;
74845;SDS011;63393;48.758;9.254;2022-10-31T17:36:29;36.17;;;17.48;;
74845;SDS011;63393;48.758;9.254;2022-10-31T17:38:58;33.10;;;15.95;;
74845;SDS011;63393;48.758;9.254;2022-10-31T17:41:25;42.05;;;20.27;;
74845;SDS011;63393;48.758;9.254;2022-10-31T17:43:54;35.00;;;18.00;;
74845;SDS011;63393;48.758;9.254;2022-10-31T17:46:21;41.97;;;19.35;;
74845;SDS011;63393;48.758;9.254;2022-10-31T17:48:50;39.55;;;18.67;;
74845;SDS011;63393;48.758;9.254;2022-10-31T17:51:24;31.77;;;17.15;;
74845;SDS011;63393;48.758;9.254;2022-10-31T17:53:52;35.25;;;16.10;;
74845;SDS011;63393;48.758;9.254;2022-10-31T17:56:20;35.85;;;15.55;;
74845;SDS011;63393;48.758;9.254;2022-10-31T17:58:48;31.90;;;15.05;;
74845;SDS011;63393;48.758;9.254;2022-10-31T18:01:16;35.08;;;15.18;;
74845;SDS011;63393;48.758;9.254;2022-10-31T18:03:44;39.97;;;18.80;;
74845;SDS011;63393;48.758;9.254;2022-10-31T18:06:12;36.25;;;18.52;;
74845;SDS011;63393;48.758;9.254;2022-10-31T18:08:41;33.67;;;17.02;;
74845;SDS011;63393;48.758;9.254;2022-10-31T18:11:10;35.75;;;18.65;;
74845;SDS011;63393;48.758;9.254;2022-10-31T18:13:40;37.92;;;17.35;;
74845;SDS011;63393;48.758;9.254;2022-10-31T18:16:08;41.75;;;19.88;;
74845;SDS011;63393;48.758;9.254;2022-10-31T18:18:36;45.75;;;22.13;;
74845;SDS011;63393;48.758;9.254;2022-10-31T18:21:04;40.20;;;22.25;;
74845;SDS011;63393;48.758;9.254;2022-10-31T18:23:31;40.70;;;19.85;;
74845;SDS011;63393;48.758;9.254;2022-10-31T18:25:59;40.00;;;19.48;;
74845;SDS011;63393;48.758;9.254;2022-10-31T18:28:26;32.50;;;16.88;;
74845;SDS011;63393;48.758;9.254;2022-10-31T18:30:55;40.72;;;18.05;;
74845;SDS011;63393;48.758;9.254;2022-10-31T18:33:24;36.97;;;19.33;;
74845;SDS011;63393;48.758;9.254;2022-10-31T18:35:52;31.70;;;16.17;;
74845;SDS011;63393;48.758;9.254;2022-10-31T18:38:19;37.88;;;15.52;;
74845;SDS011;63393;48.758;9.254;2022-10-31T18:40:47;36.17;;;16.00;;
74845;SDS011;63393;48.758;9.254;2022-10-31T18:43:14;33.55;;;16.55;;
74845;SDS011;63393;48.758;9.254;2022-10-31T18:45:41;47.05;;;25.23;;
74845;SDS011;63393;48.758;9.254;2022-10-31T18:48:12;57.20;;;28.95;;
74845;SDS011;63393;48.758;9.254;2022-10-31T18:50:40;37.95;;;20.15;;
74845;SDS011;63393;48.758;9.254;2022-10-31T18:53:08;48.88;;;22.80;;
74845;SDS011;63393;48.758;9.254;2022-10-31T18:55:37;39.92;;;21.15;;
74845;SDS011;63393;48.758;9.254;2022-10-31T18:58:05;41.55;;;23.23;;
74845;SDS011;63393;48.758;9.254;2022-10-31T19:00:32;44.28;;;21.55;;
74845;SDS011;63393;48.758;9.254;2022-10-31T19:03:02;47.03;;;23.48;;
74845;SDS011;63393;48.758;9.254;2022-10-31T19:05:32;43.80;;;25.00;;
74845;SDS011;63393;48.758;9.254;2022-10-31T19:07:59;51.08;;;26.92;;
74845;SDS011;63393;48.758;9.254;2022-10-31T19:10:27;59.22;;;31.02;;
74845;SDS011;63393;48.758;9.254;2022-10-31T19:12:55;48.80;;;26.35;;
74845;SDS011;63393;48.758;9.254;2022-10-31T19:15:22;54.15;;;25.20;;
74845;SDS011;63393;48.758;9.254;2022-10-31T19:17:50;46.78;;;24.20;;
74845;SDS011;63393;48.758;9.254;2022-10-31T19:20:18;39.42;;;22.90;;
74845;SDS011;63393;48.758;9.254;2022-10-31T19:22:47;41.70;;;22.40;;
74845;SDS011;63393;48.758;9.254;2022-10-31T19:25:15;45.63;;;22.90;;
74845;SDS011;63393;48.758;9.254;2022-10-31T19:27:42;50.35;;;27.83;;
74845;SDS011;63393;48.758;9.254;2022-10-31T19:30:11;52.63;;;24.98;;
74845;SDS011;63393;48.758;9.254;2022-10-31T19:32:41;42.28;;;22.58;;
74845;SDS011;63393;48.758;9.254;2022-10-31T19:35:09;31.25;;;15.98;;
74845;SDS011;63393;48.758;9.254;2022-10-31T19:37:37;33.07;;;16.97;;
74845;SDS011;63393;48.758;9.254;2022-10-31T19:40:08;36.25;;;16.95;;
74845;SDS011;63393;48.758;9.254;2022-10-31T19:42:36;36.00;;;19.03;;
74845;SDS011;63393;48.758;9.254;2022-10-31T19:45:05;34.00;;;18.20;;
74845;SDS011;63393;48.758;9.254;2022-10-31T19:47:33;32.55;;;16.08;;
74845;SDS011;63393;48.758;9.254;2022-10-31T19:50:00;31.08;;;15.48;;
